Time;durP1;ratioP1;P1;durP2;ratioP2;P2;SDS_P1;SDS_P2;PMS_P1;PMS_P2;Temp;Humidity;BMP_temperature;BMP_pressure;BME280_temperature;BME280_humidity;BME280_pressure;Samples;Min_cycle;Max_cycle;Signal;HPM_P1;HPM_P2
2022/08/02 00:00:15;;;;;;;7.07;3.05;;;14.50;99.90;;;;;;5058062;28;20245;-72
2022/08/02 00:02:43;;;;;;;5.68;3.20;;;14.40;99.90;;;;;;5063275;28;20438;-73
2022/08/02 00:05:09;;;;;;;3.92;2.35;;;14.40;99.90;;;;;;5063045;28;20048;-73
2022/08/02 00:07:35;;;;;;;9.25;2.90;;;14.40;99.90;;;;;;5062748;28;20055;-73
2022/08/02 00:10:01;;;;;;;8.85;2.17;;;14.40;99.90;;;;;;5063649;28;20037;-73
2022/08/02 00:12:27;;;;;;;2.97;1.63;;;14.40;99.90;;;;;;5058003;28;20059;-73
2022/08/02 00:14:52;;;;;;;4.28;2.28;;;14.30;99.90;;;;;;5060341;28;20083;-73
2022/08/02 00:17:18;;;;;;;6.95;2.30;;;14.20;99.90;;;;;;5062033;28;20067;-73
2022/08/02 00:19:44;;;;;;;6.47;2.20;;;14.20;99.90;;;;;;5058437;28;20041;-73
2022/08/02 00:22:10;;;;;;;4.45;2.03;;;14.20;99.90;;;;;;5059128;28;20105;-73
2022/08/02 00:24:35;;;;;;;5.85;1.88;;;14.20;99.90;;;;;;5056975;28;20843;-73
2022/08/02 00:27:06;;;;;;;3.58;2.00;;;14.20;99.90;;;;;;5061366;28;20108;-73
2022/08/02 00:29:33;;;;;;;4.50;2.05;;;14.10;99.90;;;;;;5058612;28;20036;-73
2022/08/02 00:31:59;;;;;;;8.35;2.30;;;14.10;99.90;;;;;;5061031;28;20108;-73
2022/08/02 00:34:25;;;;;;;3.90;2.25;;;14.10;99.90;;;;;;5059861;28;20048;-73
2022/08/02 00:36:50;;;;;;;4.88;2.60;;;14.00;99.90;;;;;;5055435;28;20037;-73
2022/08/02 00:39:16;;;;;;;4.53;2.53;;;14.00;99.90;;;;;;5061927;28;20132;-73
2022/08/02 00:41:47;;;;;;;8.27;2.50;;;13.90;99.90;;;;;;5058321;28;20189;-73
2022/08/02 00:44:14;;;;;;;3.95;2.00;;;13.90;99.90;;;;;;5063438;28;20519;-74
2022/08/02 00:46:40;;;;;;;4.75;2.22;;;13.90;99.90;;;;;;5058013;28;20457;-73
2022/08/02 00:49:06;;;;;;;7.60;2.42;;;13.90;99.90;;;;;;5059433;28;20398;-73
2022/08/02 00:51:32;;;;;;;5.57;2.13;;;13.80;99.90;;;;;;5055160;28;20040;-73
2022/08/02 00:53:57;;;;;;;7.00;2.40;;;13.90;99.90;;;;;;5058950;28;20056;-73
2022/08/02 00:56:23;;;;;;;6.25;2.10;;;13.80;99.90;;;;;;5055481;28;20033;-73
2022/08/02 00:58:49;;;;;;;5.17;2.33;;;13.80;99.90;;;;;;5059893;28;20082;-73
2022/08/02 01:01:15;;;;;;;5.23;2.20;;;13.80;99.90;;;;;;5060799;28;20303;-73
2022/08/02 01:03:40;;;;;;;4.28;2.42;;;13.80;99.90;;;;;;5061155;28;20040;-73
2022/08/02 01:06:06;;;;;;;4.67;2.20;;;13.80;99.90;;;;;;5061917;28;20488;-73
2022/08/02 01:08:32;;;;;;;4.38;1.75;;;13.80;99.90;;;;;;5059601;28;20040;-73
2022/08/02 01:10:58;;;;;;;4.22;2.45;;;13.80;99.90;;;;;;5055915;28;20056;-73
2022/08/02 01:13:25;;;;;;;5.72;2.65;;;13.80;99.90;;;;;;5063906;28;20401;-73
2022/08/02 01:16:05;;;;;;;8.70;2.88;;;13.80;99.90;;;;;;5056488;28;20045;-72
2022/08/02 01:18:37;;;;;;;5.70;2.15;;;13.80;99.90;;;;;;5062768;28;20051;-72
2022/08/02 01:21:25;;;;;;;4.57;1.95;;;13.80;99.90;;;;;;5068755;28;20044;-72
2022/08/02 01:23:56;;;;;;;6.32;2.50;;;13.70;99.90;;;;;;5063724;28;20036;-72
2022/08/02 01:26:51;;;;;;;4.47;2.25;;;13.70;99.90;;;;;;5067144;28;20604;-72
2022/08/02 01:29:33;;;;;;;4.35;2.15;;;13.70;99.90;;;;;;5062162;28;20036;-72
2022/08/02 01:32:02;;;;;;;2.88;1.70;;;13.70;99.90;;;;;;5057656;28;20049;-72
2022/08/02 01:34:34;;;;;;;4.10;2.17;;;13.70;99.90;;;;;;5064267;28;20145;-72
2022/08/02 01:37:08;;;;;;;3.67;2.20;;;13.70;99.90;;;;;;5059161;28;20052;-72
2022/08/02 01:39:37;;;;;;;6.72;3.13;;;13.60;99.90;;;;;;5062392;28;20508;-72
2022/08/02 01:42:04;;;;;;;6.95;2.95;;;13.60;99.90;;;;;;5040922;28;20052;-72
2022/08/02 01:44:34;;;;;;;7.13;2.47;;;13.60;99.90;;;;;;5063073;28;20443;-72
2022/08/02 01:47:03;;;;;;;6.38;3.33;;;13.60;99.90;;;;;;5062678;28;20064;-72
2022/08/02 01:49:33;;;;;;;7.85;2.38;;;13.50;99.90;;;;;;5062736;28;20096;-72
2022/08/02 01:55:00;;;;;;;5.43;2.50;;;13.60;99.90;;;;;;5049978;28;20378;-72
2022/08/02 01:57:28;;;;;;;4.63;2.22;;;13.60;99.90;;;;;;5054106;28;20118;-72
2022/08/02 01:59:59;;;;;;;3.88;2.17;;;13.60;99.90;;;;;;5058993;28;20045;-72
2022/08/02 02:02:25;;;;;;;4.88;2.17;;;13.60;99.90;;;;;;5061213;28;20143;-72
2022/08/02 02:04:53;;;;;;;5.78;2.00;;;13.60;99.90;;;;;;5049272;28;20388;-72
2022/08/02 02:07:20;;;;;;;5.43;2.28;;;13.60;99.90;;;;;;5057190;28;20051;-72
2022/08/02 02:09:49;;;;;;;4.43;1.65;;;13.60;99.90;;;;;;5065148;28;20043;-72
2022/08/02 02:12:16;;;;;;;5.68;2.13;;;13.60;99.90;;;;;;5060693;28;20042;-72
2022/08/02 02:14:43;;;;;;;7.85;2.33;;;13.50;99.90;;;;;;5061561;28;20040;-72
2022/08/02 02:17:10;;;;;;;7.88;2.33;;;13.50;99.90;;;;;;5059914;28;20043;-72
2022/08/02 02:19:38;;;;;;;11.07;2.58;;;13.50;99.90;;;;;;5065839;28;20036;-72
2022/08/02 02:22:04;;;;;;;4.72;2.25;;;13.50;99.90;;;;;;5063422;28;20482;-72
2022/08/02 02:24:30;;;;;;;6.63;2.42;;;13.50;99.90;;;;;;5058709;28;20210;-72
2022/08/02 02:27:00;;;;;;;4.70;2.00;;;13.50;99.90;;;;;;5062816;28;20493;-71
2022/08/02 02:29:31;;;;;;;4.88;2.00;;;13.50;99.90;;;;;;5069334;22;20082;-82
2022/08/02 02:32:04;;;;;;;4.93;1.92;;;13.50;99.90;;;;;;5051764;28;20080;-83
2022/08/02 02:34:41;;;;;;;7.40;2.25;;;13.50;99.90;;;;;;5041848;28;20048;-82
2022/08/02 02:37:21;;;;;;;4.10;2.05;;;13.50;99.90;;;;;;5048449;28;20399;-84
2022/08/02 02:39:57;;;;;;;5.30;1.90;;;13.50;99.90;;;;;;5031952;28;20033;-82
2022/08/02 02:42:29;;;;;;;4.75;2.13;;;13.50;99.90;;;;;;5029522;28;20076;-83
2022/08/02 02:45:04;;;;;;;4.70;2.20;;;13.50;99.90;;;;;;5012650;28;20037;-83
2022/08/02 02:47:34;;;;;;;7.70;2.60;;;13.50;99.90;;;;;;5041756;28;20045;-82
2022/08/02 02:50:07;;;;;;;7.60;2.25;;;13.50;99.90;;;;;;5036888;28;20455;-83
2022/08/02 02:52:40;;;;;;;5.55;2.22;;;13.50;99.90;;;;;;5026442;28;20053;-83
2022/08/02 02:55:12;;;;;;;4.82;2.22;;;13.60;99.90;;;;;;5008500;28;20561;-83
2022/08/02 02:57:43;;;;;;;4.93;2.25;;;13.50;99.90;;;;;;5025417;28;20046;-84
2022/08/02 03:00:13;;;;;;;4.80;2.20;;;13.50;99.90;;;;;;5025191;28;20060;-83
2022/08/02 03:02:43;;;;;;;5.38;2.35;;;13.50;99.90;;;;;;5026630;28;20410;-83
2022/08/02 03:05:13;;;;;;;7.30;2.60;;;13.50;99.90;;;;;;5005955;28;20041;-83
2022/08/02 03:07:39;;;;;;;7.75;3.42;;;13.50;99.90;;;;;;5010494;28;20053;-81
2022/08/02 03:10:06;;;;;;;9.43;3.65;;;13.50;99.90;;;;;;5025177;28;20110;-82
2022/08/02 03:12:35;;;;;;;5.95;2.95;;;13.50;99.90;;;;;;5029513;28;20208;-83
2022/08/02 03:15:07;;;;;;;8.77;2.50;;;13.50;99.90;;;;;;5032117;28;20530;-83
2022/08/02 03:17:44;;;;;;;4.07;2.38;;;13.60;99.90;;;;;;5019765;28;20050;-82
2022/08/02 03:20:32;;;;;;;6.18;2.20;;;13.60;99.90;;;;;;5023611;28;20117;-85
2022/08/02 03:23:00;;;;;;;4.00;1.80;;;13.60;99.90;;;;;;5011044;28;20039;-84
2022/08/02 03:25:26;;;;;;;5.35;1.77;;;13.60;99.90;;;;;;5013094;28;20623;-82
2022/08/02 03:27:52;;;;;;;3.22;1.70;;;13.60;99.90;;;;;;5031717;28;20124;-83
2022/08/02 03:30:25;;;;;;;6.43;1.88;;;13.60;99.90;;;;;;5015585;28;20105;-85
2022/08/02 03:33:04;;;;;;;3.47;1.83;;;13.60;99.90;;;;;;5012128;28;20046;-83
2022/08/02 03:35:30;;;;;;;3.95;1.88;;;13.60;99.90;;;;;;5025005;28;20133;-82
2022/08/02 03:38:04;;;;;;;3.78;2.00;;;13.60;99.90;;;;;;5011318;28;20151;-82
2022/08/02 03:40:31;;;;;;;6.72;2.30;;;13.60;99.90;;;;;;5027079;28;20042;-83
2022/08/02 03:43:03;;;;;;;5.72;2.40;;;13.60;99.90;;;;;;5016101;28;20049;-83
2022/08/02 03:45:32;;;;;;;5.95;2.30;;;13.50;99.90;;;;;;5027363;28;20041;-83
2022/08/02 03:48:05;;;;;;;6.38;2.00;;;13.60;99.90;;;;;;5030465;28;20128;-83
2022/08/02 03:50:32;;;;;;;3.72;1.77;;;13.60;99.90;;;;;;5024502;28;20559;-83
2022/08/02 03:52:58;;;;;;;8.48;2.63;;;13.60;99.90;;;;;;5031257;28;20049;-83
2022/08/02 03:55:24;;;;;;;6.55;1.98;;;13.60;99.90;;;;;;5030511;28;20049;-83
2022/08/02 03:57:53;;;;;;;5.93;1.55;;;13.60;99.90;;;;;;5029614;28;20053;-82
2022/08/02 04:00:20;;;;;;;6.03;2.08;;;13.60;99.90;;;;;;5025934;28;20068;-83
2022/08/02 04:02:47;;;;;;;6.10;2.30;;;13.50;99.90;;;;;;5016998;28;20041;-84
2022/08/02 04:05:14;;;;;;;4.72;1.98;;;13.60;99.90;;;;;;5011868;28;20195;-82
2022/08/02 04:07:42;;;;;;;5.68;2.13;;;13.60;99.90;;;;;;5026243;28;20041;-84
2022/08/02 04:10:09;;;;;;;4.97;2.13;;;13.60;99.90;;;;;;5029728;28;20120;-82
2022/08/02 04:12:35;;;;;;;6.03;2.53;;;13.60;99.90;;;;;;5029273;28;20286;-82
2022/08/02 04:15:03;;;;;;;5.50;2.13;;;13.60;99.90;;;;;;5012273;28;20041;-83
2022/08/02 04:17:32;;;;;;;5.15;2.03;;;13.60;99.90;;;;;;5014852;28;20049;-82
2022/08/02 04:20:04;;;;;;;5.03;1.73;;;13.60;99.90;;;;;;5015830;28;20124;-84
2022/08/02 04:22:36;;;;;;;4.32;2.63;;;13.60;99.90;;;;;;5017941;28;20435;-83
2022/08/02 04:25:06;;;;;;;9.85;2.20;;;13.60;99.90;;;;;;5017405;28;20377;-82
2022/08/02 04:27:35;;;;;;;6.68;2.17;;;13.60;99.90;;;;;;5009974;28;20430;-84
2022/08/02 04:30:05;;;;;;;9.27;2.55;;;13.60;99.90;;;;;;5031293;28;20072;-81
2022/08/02 04:32:34;;;;;;;5.05;1.98;;;13.60;99.90;;;;;;5025452;28;20061;-83
2022/08/02 04:35:01;;;;;;;4.80;2.35;;;13.60;99.90;;;;;;5010870;28;20038;-83
2022/08/02 04:37:29;;;;;;;5.78;2.22;;;13.60;99.90;;;;;;5012233;28;20040;-82
2022/08/02 04:39:55;;;;;;;7.13;2.22;;;13.60;99.90;;;;;;5023611;28;20526;-82
2022/08/02 04:42:25;;;;;;;3.85;2.08;;;13.60;99.90;;;;;;5021684;28;20041;-82
2022/08/02 04:44:52;;;;;;;6.68;2.20;;;13.60;99.90;;;;;;5045217;28;20052;-83
2022/08/02 04:47:20;;;;;;;12.15;2.72;;;13.60;99.90;;;;;;5027274;28;20393;-83
2022/08/02 04:49:47;;;;;;;5.90;2.10;;;13.70;99.90;;;;;;5031228;28;20045;-84
2022/08/02 04:52:18;;;;;;;5.75;2.30;;;13.70;99.90;;;;;;5031520;28;20057;-82
2022/08/02 04:54:44;;;;;;;3.33;1.92;;;13.70;99.90;;;;;;5015711;28;20042;-82
2022/08/02 04:59:55;;;;;;;4.00;1.98;;;13.80;99.90;;;;;;5024398;28;20291;-84
2022/08/02 05:02:20;;;;;;;4.95;1.85;;;13.80;99.90;;;;;;5047989;28;20782;-84
2022/08/02 05:04:46;;;;;;;3.90;2.15;;;13.90;99.90;;;;;;5037088;28;20111;-83
2022/08/02 05:07:12;;;;;;;4.85;1.85;;;14.00;99.90;;;;;;5036989;28;20059;-82
2022/08/02 05:09:38;;;;;;;5.43;1.90;;;14.00;99.90;;;;;;5033531;28;20064;-82
2022/08/02 05:12:06;;;;;;;5.72;2.05;;;14.00;99.90;;;;;;5021152;28;20041;-83
2022/08/02 05:14:32;;;;;;;3.92;1.70;;;14.10;99.90;;;;;;5024708;28;20055;-84
2022/08/02 05:17:03;;;;;;;4.40;2.15;;;14.10;99.90;;;;;;5035528;28;20041;-83
2022/08/02 05:19:28;;;;;;;4.82;1.70;;;14.20;99.90;;;;;;5021264;28;20108;-81
2022/08/02 05:21:54;;;;;;;6.22;1.70;;;14.20;99.90;;;;;;5038186;28;20569;-83
2022/08/02 05:24:23;;;;;;;5.72;2.13;;;14.30;99.90;;;;;;5038543;28;20121;-83
2022/08/02 05:26:54;;;;;;;4.65;1.77;;;14.30;99.90;;;;;;5039418;28;20041;-84
2022/08/02 05:29:23;;;;;;;5.95;1.50;;;14.30;99.90;;;;;;5034229;28;20033;-82
2022/08/02 05:31:51;;;;;;;3.67;1.35;;;14.40;99.90;;;;;;5048364;28;20069;-84
2022/08/02 05:34:20;;;;;;;4.05;1.98;;;14.40;99.90;;;;;;5052543;28;20029;-82
2022/08/02 05:36:46;;;;;;;7.38;2.17;;;14.40;99.90;;;;;;5033984;28;20033;-84
2022/08/02 05:39:15;;;;;;;11.05;2.17;;;14.50;99.90;;;;;;5038265;28;20524;-83
2022/08/02 05:41:40;;;;;;;5.22;3.25;;;14.50;99.90;;;;;;5032974;28;20037;-83
2022/08/02 05:44:06;;;;;;;4.40;1.90;;;14.50;99.90;;;;;;5024751;28;20132;-83
2022/08/02 05:46:32;;;;;;;7.57;1.95;;;14.60;99.90;;;;;;5021166;28;20056;-81
2022/08/02 05:49:03;;;;;;;4.43;1.73;;;14.60;99.90;;;;;;5042374;28;20037;-81
2022/08/02 05:51:44;;;;;;;5.60;1.88;;;14.70;99.90;;;;;;5030280;28;20638;-82
2022/08/02 05:54:28;;;;;;;4.38;1.90;;;14.80;99.90;;;;;;5019429;28;20053;-82
2022/08/02 05:57:07;;;;;;;7.57;2.67;;;14.80;99.90;;;;;;5012299;28;20048;-81
2022/08/02 06:00:13;;;;;;;6.60;2.00;;;14.80;99.90;;;;;;5013388;28;20136;-84
2022/08/02 06:03:16;;;;;;;4.18;1.88;;;15.00;99.90;;;;;;5017307;28;20045;-83
2022/08/02 06:06:19;;;;;;;3.65;1.95;;;15.10;99.90;;;;;;5026617;28;20026;-83
2022/08/02 06:09:25;;;;;;;7.63;1.95;;;15.20;99.90;;;;;;5024969;28;20034;-82
2022/08/02 06:12:01;;;;;;;4.38;1.48;;;15.30;99.90;;;;;;5012063;28;20140;-84
2022/08/02 06:14:27;;;;;;;7.40;1.83;;;15.40;99.90;;;;;;5021583;28;20049;-84
2022/08/02 06:16:56;;;;;;;3.40;1.65;;;15.50;99.90;;;;;;5007473;28;20034;-83
2022/08/02 06:19:28;;;;;;;2.55;1.30;;;15.50;99.90;;;;;;5033240;28;20051;-85
2022/08/02 06:22:04;;;;;;;;;;;;;;;;;;;;;
2022/08/02 06:24:40;;;;;;;6.60;1.80;;;15.70;99.90;;;;;;5019647;28;20147;-87
2022/08/02 06:27:06;;;;;;;4.78;1.40;;;15.90;99.90;;;;;;5003922;28;20060;-84
2022/08/02 06:29:32;;;;;;;4.85;1.50;;;16.00;99.90;;;;;;5023515;28;20033;-84
2022/08/02 06:31:59;;;;;;;4.63;1.80;;;16.00;99.90;;;;;;5009592;28;20053;-84
2022/08/02 06:34:27;;;;;;;;;;;16.10;99.90;;;;;;5029332;28;20091;-85
2022/08/02 06:37:21;;;;;;;4.82;1.30;;;16.20;99.90;;;;;;5004627;28;19960;-84
2022/08/02 06:39:53;;;;;;;6.25;1.55;;;16.20;99.90;;;;;;5043862;28;20038;-83
2022/08/02 06:43:03;;;;;;;;;;;;;;;;;;;;;
2022/08/02 06:45:33;;;;;;;6.70;1.60;;;16.40;99.90;;;;;;5024492;28;20060;-84
2022/08/02 06:47:59;;;;;;;3.50;1.27;;;16.40;99.90;;;;;;5019632;28;20037;-81
2022/08/02 06:50:25;;;;;;;2.40;1.10;;;16.50;99.90;;;;;;5005834;28;20092;-84
2022/08/02 06:52:56;;;;;;;2.80;1.50;;;16.60;99.90;;;;;;5041400;28;20458;-84
2022/08/02 06:55:31;;;;;;;4.95;1.67;;;16.70;99.90;;;;;;5004352;28;20048;-84
2022/08/02 06:58:01;;;;;;;5.50;1.48;;;16.80;99.90;;;;;;5026547;28;20068;-84
2022/08/02 07:00:36;;;;;;;3.03;0.82;;;16.90;99.90;;;;;;5026484;28;20037;-85
2022/08/02 07:03:01;;;;;;;3.00;1.17;;;17.00;99.90;;;;;;5021655;28;20117;-84
2022/08/02 07:05:33;;;;;;;6.95;1.40;;;17.10;99.90;;;;;;5025433;28;20045;-85
2022/08/02 07:08:08;;;;;;;7.20;1.05;;;17.10;99.90;;;;;;5005661;28;20049;-87
2022/08/02 07:10:33;;;;;;;4.00;1.10;;;17.10;99.90;;;;;;5009012;28;20046;-84
2022/08/02 07:12:59;;;;;;;2.63;0.95;;;17.20;99.90;;;;;;5030586;28;20467;-84
2022/08/02 07:15:25;;;;;;;4.00;1.08;;;17.20;99.90;;;;;;5020505;28;20287;-82
2022/08/02 07:17:54;;;;;;;4.57;1.10;;;17.20;99.90;;;;;;5008181;28;20083;-83
2022/08/02 07:20:23;;;;;;;4.82;0.88;;;17.30;99.90;;;;;;5015104;28;20037;-83
2022/08/02 07:22:52;;;;;;;2.38;1.15;;;17.40;99.90;;;;;;5022653;28;20057;-83
2022/08/02 07:25:17;;;;;;;5.93;1.00;;;17.40;99.90;;;;;;5039154;28;20095;-83
2022/08/02 07:27:43;;;;;;;2.72;1.00;;;17.50;99.90;;;;;;5010302;28;20038;-84
2022/08/02 07:30:32;;;;;;;1.83;0.93;;;17.60;99.90;;;;;;5009582;28;20103;-86
2022/08/02 07:32:58;;;;;;;3.58;1.02;;;17.60;99.90;;;;;;5027877;28;20103;-83
2022/08/02 07:35:48;;;;;;;1.92;0.90;;;17.70;99.90;;;;;;5027507;28;20055;-87
2022/08/02 07:38:16;;;;;;;1.95;0.80;;;17.80;99.90;;;;;;5027125;28;20076;-84
2022/08/02 07:40:44;;;;;;;1.58;0.90;;;17.90;99.90;;;;;;5023383;28;20122;-85
2022/08/02 07:43:13;;;;;;;5.32;0.77;;;18.00;99.90;;;;;;5010997;28;20029;-83
2022/08/02 07:45:39;;;;;;;3.15;1.10;;;18.10;99.90;;;;;;5023505;28;20051;-84
2022/08/02 07:48:07;;;;;;;2.13;0.88;;;18.20;99.90;;;;;;5010616;28;20049;-84
2022/08/02 07:50:33;;;;;;;5.15;1.35;;;18.30;99.90;;;;;;5026263;28;20504;-86
2022/08/02 07:52:59;;;;;;;2.42;1.20;;;18.40;99.90;;;;;;5029500;28;20045;-84
2022/08/02 07:55:25;;;;;;;3.63;1.02;;;18.50;99.90;;;;;;5011365;28;20111;-84
2022/08/02 07:57:54;;;;;;;;;;;18.50;99.90;;;;;;5038215;28;20052;-83
2022/08/02 08:00:22;;;;;;;3.95;1.10;;;18.70;99.90;;;;;;5025563;28;19928;-85
2022/08/02 08:02:56;;;;;;;2.72;0.80;;;18.80;99.90;;;;;;5021640;28;20075;-85
2022/08/02 08:05:22;;;;;;;2.60;0.80;;;18.80;99.90;;;;;;5007264;28;20435;-84
2022/08/02 08:07:57;;;;;;;2.53;0.70;;;18.90;99.90;;;;;;5023766;28;20616;-82
2022/08/02 08:10:23;;;;;;;1.38;0.57;;;19.00;99.90;;;;;;5007426;28;20141;-85
2022/08/02 08:12:57;;;;;;;3.38;0.90;;;19.10;99.90;;;;;;5025827;28;20037;-84
2022/08/02 08:15:26;;;;;;;3.08;0.77;;;19.10;99.90;;;;;;5009630;28;20072;-83
2022/08/02 08:17:55;;;;;;;4.15;0.70;;;19.20;99.90;;;;;;5023478;28;20470;-85
2022/08/02 08:20:30;;;;;;;3.08;0.93;;;19.20;99.90;;;;;;5009517;28;20643;-86
2022/08/02 08:22:56;;;;;;;1.30;0.70;;;19.30;99.90;;;;;;5028279;28;20467;-85
2022/08/02 08:25:34;;;;;;;2.08;0.95;;;19.30;99.90;;;;;;5022050;28;20042;-82
2022/08/02 08:28:00;;;;;;;2.53;0.80;;;19.40;99.90;;;;;;5041284;22;20065;-72
2022/08/02 08:30:25;;;;;;;2.28;0.70;;;19.50;99.90;;;;;;5032584;28;20103;-72
2022/08/02 08:32:51;;;;;;;1.92;0.85;;;19.60;99.90;;;;;;5026918;28;20112;-73
2022/08/02 08:35:17;;;;;;;2.28;0.60;;;19.70;99.90;;;;;;5043306;28;20028;-73
2022/08/02 08:37:42;;;;;;;1.98;1.10;;;19.80;99.90;;;;;;5023416;28;20121;-72
2022/08/02 08:40:10;;;;;;;1.85;0.90;;;19.90;99.90;;;;;;5043997;28;20455;-72
2022/08/02 08:42:37;;;;;;;3.38;1.00;;;20.00;99.90;;;;;;5040096;28;20110;-72
2022/08/02 08:45:04;;;;;;;1.67;0.77;;;20.10;99.90;;;;;;5041980;28;20456;-72
2022/08/02 08:47:35;;;;;;;3.13;0.90;;;20.20;99.90;;;;;;5033509;28;20041;-72
2022/08/02 08:50:04;;;;;;;3.78;0.90;;;20.20;99.90;;;;;;5023707;28;20044;-73
2022/08/02 08:52:34;;;;;;;2.83;0.85;;;20.30;99.90;;;;;;5026236;28;20071;-72
2022/08/02 08:55:02;;;;;;;5.03;0.95;;;20.40;99.90;;;;;;5040997;28;20041;-72
2022/08/02 08:57:31;;;;;;;2.38;1.25;;;20.50;99.90;;;;;;5023003;28;20037;-73
2022/08/02 08:59:57;;;;;;;7.10;1.27;;;20.60;99.90;;;;;;5009581;28;20048;-72
2022/08/02 09:02:22;;;;;;;2.08;0.98;;;20.70;99.90;;;;;;5022381;28;20045;-72
2022/08/02 09:04:49;;;;;;;2.53;1.20;;;20.90;99.90;;;;;;5011670;28;20052;-72
2022/08/02 09:07:14;;;;;;;1.85;0.80;;;21.00;99.90;;;;;;5026184;28;20119;-72
2022/08/02 09:09:40;;;;;;;2.58;1.30;;;21.10;99.90;;;;;;5028221;28;20540;-72
2022/08/02 09:12:13;;;;;;;2.10;1.08;;;21.20;99.90;;;;;;5055371;28;20043;-73
2022/08/02 09:14:39;;;;;;;2.67;1.00;;;21.20;99.90;;;;;;5044117;28;20764;-72
2022/08/02 09:17:07;;;;;;;1.38;0.80;;;21.20;99.90;;;;;;5040200;28;20123;-72
2022/08/02 09:19:33;;;;;;;1.42;0.80;;;21.40;99.90;;;;;;5016069;28;20454;-72
2022/08/02 09:22:09;;;;;;;2.45;1.23;;;21.40;99.90;;;;;;5031399;28;20167;-72
2022/08/02 09:24:48;;;;;;;3.67;1.10;;;21.50;99.90;;;;;;5039937;28;20150;-72
2022/08/02 09:27:16;;;;;;;4.13;1.30;;;21.50;99.90;;;;;;5016646;28;20508;-71
2022/08/02 09:29:49;;;;;;;1.75;0.93;;;21.60;99.90;;;;;;5055259;28;20138;-72
2022/08/02 09:32:16;;;;;;;2.65;1.15;;;21.60;99.90;;;;;;5025962;28;20095;-73
2022/08/02 09:34:50;;;;;;;2.42;1.20;;;21.70;99.90;;;;;;5042711;28;20443;-72
2022/08/02 09:37:30;;;;;;;3.15;1.13;;;21.80;99.90;;;;;;5028264;28;20051;-72
2022/08/02 09:40:01;;;;;;;3.75;1.40;;;21.90;99.90;;;;;;5034351;28;20203;-73
2022/08/02 09:42:28;;;;;;;2.90;1.38;;;22.10;99.90;;;;;;5039911;28;20560;-72
2022/08/02 09:44:58;;;;;;;2.75;1.45;;;22.20;99.90;;;;;;5029293;28;20037;-72
2022/08/02 09:47:26;;;;;;;3.40;1.27;;;22.30;99.90;;;;;;5026501;28;20056;-73
2022/08/02 09:49:54;;;;;;;4.18;1.70;;;22.40;99.90;;;;;;5047354;28;20260;-72
2022/08/02 09:52:28;;;;;;;3.33;1.70;;;22.50;99.90;;;;;;5023128;28;20163;-73
2022/08/02 09:54:54;;;;;;;2.97;1.67;;;22.60;99.90;;;;;;4996878;28;20048;-72
2022/08/02 09:57:27;;;;;;;;;;;22.70;99.90;;;;;;5051332;28;20036;-73
2022/08/02 09:59:54;;;;;;;3.03;1.48;;;22.80;99.90;;;;;;5049501;28;20298;-72
2022/08/02 10:02:20;;;;;;;7.05;1.75;;;22.90;99.90;;;;;;5057150;28;20435;-72
2022/08/02 10:04:45;;;;;;;;;;;22.90;99.90;;;;;;5055704;28;20035;-72
2022/08/02 10:07:11;;;;;;;4.85;1.85;;;23.10;99.90;;;;;;5023341;28;19916;-73
2022/08/02 10:09:37;;;;;;;;;;;23.10;99.90;;;;;;5047048;28;20128;-71
2022/08/02 10:12:04;;;;;;;4.07;1.85;;;23.20;99.90;;;;;;5053975;28;19975;-72
2022/08/02 10:14:31;;;;;;;3.42;2.03;;;23.30;99.90;;;;;;5046484;28;20041;-73
2022/08/02 10:16:57;;;;;;;3.38;1.92;;;23.30;99.90;;;;;;5046622;28;20068;-71
2022/08/02 10:19:23;;;;;;;;;;;23.30;99.90;;;;;;5038427;28;20508;-72
2022/08/02 10:21:55;;;;;;;3.65;1.92;;;23.30;99.90;;;;;;5058029;28;19924;-72
2022/08/02 10:24:23;;;;;;;4.00;2.00;;;23.30;99.90;;;;;;5019416;28;20045;-72
2022/08/02 10:26:49;;;;;;;5.85;2.05;;;23.40;99.90;;;;;;5024082;28;20088;-72
2022/08/02 10:29:16;;;;;;;;;;;23.50;99.90;;;;;;5035120;28;20081;-72
2022/08/02 10:32:03;;;;;;;4.38;2.35;;;23.60;99.90;;;;;;5043925;28;19916;-72
2022/08/02 10:34:47;;;;;;;2.97;1.60;;;23.60;99.90;;;;;;5024856;28;20040;-72
2022/08/02 10:37:15;;;;;;;5.30;2.47;;;23.70;99.90;;;;;;5052660;28;20116;-72
2022/08/02 10:39:42;;;;;;;3.58;2.20;;;23.80;99.90;;;;;;5049243;28;20048;-72
2022/08/02 10:42:08;;;;;;;2.58;1.98;;;23.70;99.90;;;;;;5026760;28;20045;-72
2022/08/02 10:44:36;;;;;;;4.18;2.00;;;23.80;99.90;;;;;;5040390;28;20095;-71
2022/08/02 10:47:13;;;;;;;4.03;2.45;;;23.80;99.90;;;;;;5047602;28;20037;-73
2022/08/02 10:49:59;;;;;;;4.20;2.20;;;23.80;99.90;;;;;;5022124;28;20457;-72
2022/08/02 10:52:28;;;;;;;5.35;2.72;;;23.80;99.90;;;;;;5042630;28;20169;-72
2022/08/02 10:55:02;;;;;;;4.43;2.25;;;23.80;99.90;;;;;;5038786;28;20042;-72
2022/08/02 10:57:33;;;;;;;8.02;2.35;;;23.80;99.90;;;;;;5036343;28;20033;-73
2022/08/02 11:00:09;;;;;;;5.38;2.00;;;24.00;99.90;;;;;;5025367;28;20063;-72
2022/08/02 11:02:43;;;;;;;5.22;2.47;;;24.10;99.90;;;;;;5001227;28;20041;-71
2022/08/02 11:05:16;;;;;;;5.13;2.20;;;24.20;99.90;;;;;;5041965;28;20148;-72
2022/08/02 11:07:49;;;;;;;5.25;2.70;;;24.40;99.90;;;;;;5041477;28;20128;-72
2022/08/02 11:10:34;;;;;;;6.07;2.78;;;24.40;99.90;;;;;;5029346;28;20091;-72
2022/08/02 11:13:01;;;;;;;2.88;1.70;;;24.40;99.90;;;;;;5037734;28;20489;-73
2022/08/02 11:15:28;;;;;;;3.78;1.73;;;24.40;99.90;;;;;;5043383;28;20045;-72
2022/08/02 11:17:55;;;;;;;2.97;1.52;;;24.20;99.90;;;;;;5022713;28;20143;-72
2022/08/02 11:20:22;;;;;;;3.75;1.95;;;24.20;99.90;;;;;;5020906;28;20049;-72
2022/08/02 11:22:50;;;;;;;7.20;2.67;;;24.10;99.90;;;;;;5020024;28;20047;-71
2022/08/02 11:25:22;;;;;;;3.13;2.13;;;24.00;99.90;;;;;;5028982;28;20037;-71
2022/08/02 11:27:58;;;;;;;4.63;1.70;;;24.00;99.90;;;;;;4999854;28;20044;-72
2022/08/02 11:30:25;;;;;;;4.13;2.55;;;24.00;99.90;;;;;;5026045;28;20139;-72
2022/08/02 11:32:56;;;;;;;4.50;2.60;;;24.10;99.90;;;;;;5040161;28;20040;-72
2022/08/02 11:35:22;;;;;;;5.35;2.42;;;24.20;99.90;;;;;;5025643;28;20559;-72
2022/08/02 11:37:47;;;;;;;6.88;2.83;;;24.30;99.90;;;;;;5037100;28;20096;-71
2022/08/02 11:40:14;;;;;;;;;;;24.40;99.90;;;;;;5039604;28;20037;-72
2022/08/02 11:42:43;;;;;;;5.60;3.40;;;24.40;99.90;;;;;;5021201;28;19966;-71
2022/08/02 11:45:11;;;;;;;4.45;3.03;;;24.50;99.90;;;;;;5042998;28;20041;-72
2022/08/02 11:47:47;;;;;;;6.40;3.65;;;24.60;99.90;;;;;;5041490;28;20045;-71
2022/08/02 11:50:14;;;;;;;6.32;3.47;;;24.50;99.90;;;;;;5038098;28;20045;-72
2022/08/02 11:52:39;;;;;;;5.40;3.30;;;24.50;99.90;;;;;;5039678;28;20581;-72
2022/08/02 11:55:07;;;;;;;7.55;3.38;;;24.50;99.90;;;;;;5004634;28;20111;-71
2022/08/02 11:57:34;;;;;;;5.28;3.03;;;24.40;99.90;;;;;;5032716;28;20198;-71
2022/08/02 12:00:00;;;;;;;6.28;3.90;;;24.40;99.90;;;;;;5046618;28;20063;-71
2022/08/02 12:02:28;;;;;;;7.07;3.70;;;24.40;99.90;;;;;;5027491;28;20498;-72
2022/08/02 12:04:57;;;;;;;8.50;3.97;;;24.30;99.90;;;;;;5015733;28;20036;-71
2022/08/02 12:07:28;;;;;;;10.38;3.92;;;24.30;99.90;;;;;;5011015;28;20330;-72
2022/08/02 12:10:03;;;;;;;6.47;3.63;;;24.20;99.90;;;;;;5020421;28;20595;-72
2022/08/02 12:12:29;;;;;;;5.50;3.70;;;24.20;99.90;;;;;;5037417;28;20554;-72
2022/08/02 12:14:54;;;;;;;6.38;3.30;;;24.20;99.90;;;;;;5047754;28;20067;-71
2022/08/02 12:20:12;;;;;;;7.47;3.67;;;24.20;99.90;;;;;;5016287;28;19956;-71
2022/08/02 12:22:39;;;;;;;6.80;4.47;;;24.10;99.90;;;;;;5023741;28;20098;-72
2022/08/02 12:25:21;;;;;;;6.18;4.22;;;24.10;99.90;;;;;;5023620;28;20041;-72
2022/08/02 12:27:47;;;;;;;8.75;4.47;;;24.00;99.90;;;;;;5038226;28;20037;-72
2022/08/02 12:30:16;;;;;;;8.93;4.60;;;24.00;99.90;;;;;;5036985;28;20071;-72
2022/08/02 12:32:43;;;;;;;10.38;4.90;;;23.90;99.90;;;;;;5038889;28;20037;-71
2022/08/02 12:35:19;;;;;;;9.75;5.45;;;23.90;99.90;;;;;;5035977;28;20050;-71
2022/08/02 12:37:47;;;;;;;8.25;4.40;;;23.80;99.90;;;;;;5035941;28;20090;-72
2022/08/02 12:40:31;;;;;;;6.40;4.03;;;23.80;99.90;;;;;;5030102;28;20090;-72
2022/08/02 12:43:02;;;;;;;8.15;4.45;;;23.70;99.90;;;;;;5038997;28;20033;-72
2022/08/02 12:45:31;;;;;;;12.15;5.35;;;23.70;99.90;;;;;;5047276;28;20060;-71
2022/08/02 12:47:59;;;;;;;9.45;4.88;;;23.70;99.90;;;;;;5037005;28;20067;-72
2022/08/02 12:50:36;;;;;;;7.95;4.68;;;23.80;99.90;;;;;;5018143;28;20402;-73
2022/08/02 12:53:12;;;;;;;;;;;23.70;99.90;;;;;;5016970;28;20112;-72
2022/08/02 12:55:48;;;;;;;9.52;4.68;;;23.70;99.90;;;;;;5041317;28;19921;-72
2022/08/02 12:58:13;;;;;;;11.75;5.18;;;23.70;99.90;;;;;;5037135;28;20041;-72
2022/08/02 13:00:39;;;;;;;;;;;23.70;99.90;;;;;;5036356;28;20034;-72
2022/08/02 13:03:06;;;;;;;10.02;5.00;;;23.80;99.90;;;;;;5008687;28;20196;-72
2022/08/02 13:05:37;;;;;;;9.90;5.75;;;23.70;99.90;;;;;;5047308;28;20427;-72
2022/08/02 13:08:04;;;;;;;13.77;6.32;;;23.80;99.90;;;;;;5037944;28;20150;-71
2022/08/02 13:10:29;;;;;;;8.10;5.57;;;23.70;99.90;;;;;;5028205;28;20405;-71
2022/08/02 13:12:55;;;;;;;;;;;23.70;99.90;;;;;;5030512;28;20112;-71